createdAt,value
2023-01-18T00:00:10.653Z,4.18
2023-01-18T00:03:13.383Z,3.90
2023-01-18T00:06:15.430Z,4.38
2023-01-18T00:09:17.260Z,3.80
2023-01-18T00:12:19.836Z,4.55
2023-01-18T00:15:21.796Z,4.05
2023-01-18T00:18:23.665Z,3.92
2023-01-18T00:21:27.249Z,4.32
2023-01-18T00:24:31.300Z,3.95
2023-01-18T00:27:33.190Z,4.10
2023-01-18T00:30:34.997Z,4.53
2023-01-18T00:33:37.258Z,4.10
2023-01-18T00:36:39.145Z,4.45
2023-01-18T00:39:41.006Z,4.13
2023-01-18T00:42:42.848Z,4.18
2023-01-18T00:45:45.162Z,4.90
2023-01-18T00:48:47.173Z,4.57
2023-01-18T00:51:49.033Z,4.38
2023-01-18T00:54:50.954Z,4.00
2023-01-18T00:57:52.927Z,4.20
2023-01-18T01:00:54.834Z,3.85
2023-01-18T01:03:56.841Z,3.78
2023-01-18T01:06:58.732Z,4.13
2023-01-18T01:10:00.582Z,4.28
2023-01-18T01:13:02.805Z,5.25
2023-01-18T01:16:10.302Z,4.25
2023-01-18T01:19:12.191Z,4.63
2023-01-18T01:22:14.044Z,4.63
2023-01-18T01:25:16.005Z,4.90
2023-01-18T01:28:17.855Z,5.38
2023-01-18T01:31:20.720Z,5.13
2023-01-18T01:34:22.705Z,6.05
2023-01-18T01:37:24.583Z,5.28
2023-01-18T01:40:26.475Z,4.90
2023-01-18T01:43:37.465Z,4.63
2023-01-18T01:46:55.892Z,4.85
2023-01-18T01:50:02.961Z,4.65
2023-01-18T01:53:05.885Z,5.22
2023-01-18T01:56:08.819Z,4.10
2023-01-18T01:59:11.300Z,4.70
2023-01-18T02:02:13.523Z,4.13
2023-01-18T02:05:17.893Z,4.70
2023-01-18T02:08:20.005Z,4.35
2023-01-18T02:11:21.829Z,4.22
2023-01-18T02:14:27.325Z,4.78
2023-01-18T02:17:32.026Z,4.65
2023-01-18T02:21:16.637Z,5.22
2023-01-18T02:24:48.543Z,4.35
2023-01-18T02:28:14.563Z,4.95
2023-01-18T02:31:30.019Z,3.95
2023-01-18T02:34:48.297Z,4.82
2023-01-18T02:38:13.176Z,4.47
2023-01-18T02:41:44.074Z,4.85
2023-01-18T02:44:47.133Z,4.60
2023-01-18T02:47:49.625Z,5.13
2023-01-18T02:50:52.136Z,5.13
2023-01-18T02:53:54.032Z,4.47
2023-01-18T02:56:59.233Z,6.10
2023-01-18T03:00:03.224Z,5.68
2023-01-18T03:03:07.182Z,5.45
2023-01-18T03:06:09.188Z,5.53
2023-01-18T03:09:11.832Z,5.72
2023-01-18T03:12:24.020Z,5.05
2023-01-18T03:15:58.690Z,6.15
2023-01-18T03:19:06.082Z,5.32
2023-01-18T03:22:07.914Z,4.80
2023-01-18T03:25:13.474Z,5.70
2023-01-18T03:28:23.822Z,5.47
2023-01-18T03:31:39.165Z,4.88
2023-01-18T03:35:15.933Z,4.88
2023-01-18T03:38:18.735Z,4.70
2023-01-18T03:41:22.633Z,5.30
2023-01-18T03:44:37.247Z,4.82
2023-01-18T03:47:39.746Z,4.82
2023-01-18T03:50:52.219Z,5.50
2023-01-18T03:53:57.090Z,5.60
2023-01-18T03:57:12.786Z,5.13
2023-01-18T04:00:15.177Z,4.60
2023-01-18T04:03:16.971Z,5.43
2023-01-18T04:06:19.356Z,4.85
2023-01-18T04:09:21.205Z,4.40
2023-01-18T04:12:23.089Z,3.95
2023-01-18T04:15:24.994Z,4.20
2023-01-18T04:18:27.271Z,4.53
2023-01-18T04:21:29.136Z,5.03
2023-01-18T04:24:31.011Z,4.55
2023-01-18T04:27:32.926Z,5.03
2023-01-18T04:30:35.010Z,4.07
2023-01-18T04:33:36.958Z,4.70
2023-01-18T04:36:39.021Z,4.10
2023-01-18T04:39:40.905Z,4.90
2023-01-18T04:42:51.144Z,4.18
2023-01-18T04:45:56.324Z,4.93
2023-01-18T04:48:58.284Z,4.57
2023-01-18T04:52:00.134Z,4.25
2023-01-18T04:55:02.029Z,5.40
2023-01-18T04:58:03.958Z,4.40
2023-01-18T05:01:09.188Z,4.82
2023-01-18T05:04:11.264Z,4.35
2023-01-18T05:07:13.259Z,5.00
2023-01-18T05:10:15.310Z,4.53
2023-01-18T05:13:17.235Z,4.65
2023-01-18T05:16:22.039Z,4.72
2023-01-18T05:19:24.000Z,4.30
2023-01-18T05:22:28.447Z,4.00
2023-01-18T05:25:30.321Z,3.75
2023-01-18T05:28:32.136Z,3.35
2023-01-18T05:31:34.081Z,3.10
2023-01-18T05:34:35.944Z,4.20
2023-01-18T05:37:41.348Z,3.92
2023-01-18T05:40:44.856Z,3.67
2023-01-18T05:43:46.817Z,3.58
2023-01-18T05:46:48.787Z,4.05
2023-01-18T05:49:50.773Z,3.63
2023-01-18T05:52:52.759Z,3.70
2023-01-18T05:55:59.600Z,3.50
2023-01-18T05:59:01.612Z,3.60
2023-01-18T06:02:04.818Z,3.13
2023-01-18T06:08:08.983Z,3.10
2023-01-18T06:11:11.397Z,3.20
2023-01-18T06:14:13.607Z,3.55
2023-01-18T06:17:15.867Z,3.40
2023-01-18T06:20:17.986Z,4.25
2023-01-18T06:23:20.373Z,3.35
2023-01-18T06:26:22.286Z,4.00
2023-01-18T06:29:24.349Z,4.13
2023-01-18T06:32:26.329Z,3.90
2023-01-18T06:35:28.462Z,3.60
2023-01-18T06:38:30.563Z,4.32
2023-01-18T06:41:32.724Z,4.32
2023-01-18T06:44:34.791Z,4.43
2023-01-18T06:47:36.944Z,3.20
2023-01-18T06:50:38.911Z,3.85
2023-01-18T06:53:40.961Z,4.00
2023-01-18T06:56:43.175Z,4.18
2023-01-18T06:59:45.188Z,3.65
2023-01-18T07:02:47.383Z,3.80
2023-01-18T07:05:49.361Z,4.13
2023-01-18T07:08:51.358Z,4.13
2023-01-18T07:11:53.407Z,3.75
2023-01-18T07:14:55.572Z,3.60
2023-01-18T07:17:57.566Z,4.03
2023-01-18T07:20:59.512Z,3.53
2023-01-18T07:24:01.558Z,3.60
2023-01-18T07:27:06.087Z,3.83
2023-01-18T07:30:08.778Z,3.95
2023-01-18T07:33:10.750Z,4.25
2023-01-18T07:36:12.992Z,4.20
2023-01-18T07:39:15.196Z,4.10
2023-01-18T07:42:19.650Z,4.30
2023-01-18T07:45:21.614Z,4.32
2023-01-18T07:48:24.274Z,4.10
2023-01-18T07:51:26.424Z,4.35
2023-01-18T07:54:28.371Z,5.00
2023-01-18T07:57:30.417Z,4.70
2023-01-18T08:00:32.494Z,3.95
2023-01-18T08:03:34.625Z,4.07
2023-01-18T08:06:36.782Z,4.03
2023-01-18T08:09:38.802Z,6.28
2023-01-18T08:12:41.171Z,4.80
2023-01-18T08:15:43.213Z,4.78
2023-01-18T08:18:45.394Z,4.68
2023-01-18T08:21:47.902Z,4.25
2023-01-18T08:24:49.919Z,4.82
2023-01-18T08:27:51.915Z,3.83
2023-01-18T08:30:54.009Z,4.05
2023-01-18T08:33:56.074Z,3.75
2023-01-18T08:36:58.053Z,4.18
2023-01-18T08:40:00.063Z,3.80
2023-01-18T08:43:03.406Z,3.92
2023-01-18T08:46:05.634Z,3.40
2023-01-18T08:49:08.047Z,4.10
2023-01-18T08:52:10.045Z,3.70
2023-01-18T08:55:12.076Z,3.95
2023-01-18T08:58:14.224Z,3.88
2023-01-18T09:01:16.225Z,3.40
2023-01-18T09:04:18.528Z,3.20
2023-01-18T09:07:20.478Z,3.85
2023-01-18T09:10:23.327Z,3.38
2023-01-18T09:13:25.374Z,4.15
2023-01-18T09:16:28.014Z,4.13
2023-01-18T09:19:30.160Z,3.30
2023-01-18T09:22:32.206Z,3.33
2023-01-18T09:25:35.409Z,2.95
2023-01-18T09:28:37.347Z,3.50
2023-01-18T09:31:39.286Z,3.95
2023-01-18T09:34:41.334Z,3.75
2023-01-18T09:37:46.037Z,3.40
2023-01-18T09:40:47.961Z,4.78
2023-01-18T09:43:54.004Z,3.72
2023-01-18T09:47:01.942Z,3.20
2023-01-18T09:50:15.125Z,2.95
2023-01-18T09:53:29.488Z,3.03
2023-01-18T09:56:41.574Z,3.15
2023-01-18T09:59:55.837Z,3.40
2023-01-18T10:03:01.577Z,3.30
2023-01-18T10:06:08.982Z,2.92
2023-01-18T10:09:19.309Z,3.00
2023-01-18T10:12:46.091Z,2.80
2023-01-18T10:15:49.284Z,3.05
2023-01-18T10:22:19.609Z,3.65
2023-01-18T10:25:53.663Z,2.65
2023-01-18T10:29:16.842Z,2.58
2023-01-18T10:32:23.271Z,2.53
2023-01-18T10:35:42.762Z,2.92
2023-01-18T10:38:46.401Z,2.63
2023-01-18T10:41:48.307Z,3.10
2023-01-18T10:44:50.633Z,2.30
2023-01-18T10:47:55.388Z,2.03
2023-01-18T10:51:03.189Z,2.53
2023-01-18T10:54:26.811Z,9.65
2023-01-18T10:57:32.179Z,2.03
2023-01-18T11:00:36.404Z,1.48
2023-01-18T11:03:47.443Z,2.63
2023-01-18T11:06:53.109Z,2.00
2023-01-18T11:09:59.492Z,2.20
2023-01-18T11:13:01.666Z,1.95
2023-01-18T11:16:05.343Z,1.40
2023-01-18T11:19:17.940Z,1.30
2023-01-18T11:22:20.036Z,1.52
2023-01-18T11:25:22.523Z,1.30
2023-01-18T11:28:29.354Z,1.00
2023-01-18T11:31:43.752Z,1.60
2023-01-18T11:34:51.799Z,1.67
2023-01-18T11:38:02.570Z,1.27
2023-01-18T11:41:12.980Z,1.30
2023-01-18T11:44:29.688Z,1.60
2023-01-18T11:47:57.373Z,1.52
2023-01-18T12:03:30.602Z,1.40
2023-01-18T12:07:11.593Z,1.55
2023-01-18T12:10:21.643Z,1.50
2023-01-18T12:13:41.644Z,1.70
2023-01-18T12:17:11.095Z,1.23
2023-01-18T12:20:40.726Z,1.60
2023-01-18T12:23:52.041Z,1.58
2023-01-18T12:27:03.254Z,1.25
2023-01-18T12:30:23.494Z,1.30
2023-01-18T12:33:43.453Z,1.58
2023-01-18T12:36:48.877Z,7.47
2023-01-18T12:40:03.402Z,2.55
2023-01-18T12:43:08.332Z,1.33
2023-01-18T12:46:31.560Z,1.50
2023-01-18T12:49:40.258Z,1.70
2023-01-18T12:53:00.827Z,1.48
2023-01-18T12:56:13.125Z,1.50
2023-01-18T12:59:26.026Z,1.48
2023-01-18T13:02:33.399Z,1.85
2023-01-18T13:05:54.550Z,1.50
2023-01-18T13:12:16.272Z,1.55
2023-01-18T13:15:47.675Z,2.45
2023-01-18T13:19:05.667Z,1.40
2023-01-18T13:22:48.820Z,1.70
2023-01-18T13:26:33.338Z,1.52
2023-01-18T13:32:45.860Z,1.20
2023-01-18T13:36:09.710Z,1.23
2023-01-18T13:39:22.034Z,1.45
2023-01-18T13:42:36.178Z,1.50
2023-01-18T13:46:12.188Z,1.38
2023-01-18T13:49:39.010Z,1.15
2023-01-18T13:52:41.019Z,1.40
2023-01-18T13:55:56.814Z,1.50
2023-01-18T13:59:21.211Z,1.45
2023-01-18T14:02:40.197Z,1.25
2023-01-18T14:05:47.289Z,1.50
2023-01-18T14:09:15.663Z,1.60
2023-01-18T14:12:54.141Z,1.30
2023-01-18T14:16:06.630Z,1.50
2023-01-18T14:19:20.174Z,1.65
2023-01-18T14:23:05.146Z,1.73
2023-01-18T14:26:24.144Z,1.55
2023-01-18T14:30:04.589Z,1.77
2023-01-18T14:38:26.993Z,1.65
2023-01-18T14:41:51.887Z,1.35
2023-01-18T14:44:58.819Z,1.13
2023-01-18T14:48:21.609Z,1.00
2023-01-18T14:51:29.902Z,1.40
2023-01-18T14:54:33.514Z,1.25
2023-01-18T14:57:53.720Z,1.23
2023-01-18T15:01:00.727Z,1.25
2023-01-18T15:04:21.163Z,1.20
2023-01-18T15:07:31.735Z,1.48
2023-01-18T15:10:36.953Z,1.35
2023-01-18T15:13:54.307Z,1.65
2023-01-18T15:16:58.569Z,1.58
2023-01-18T15:20:06.677Z,1.95
2023-01-18T15:23:08.549Z,2.30
2023-01-18T15:26:10.504Z,2.13
2023-01-18T15:29:26.238Z,2.20
2023-01-18T15:32:31.904Z,2.33
2023-01-18T15:35:34.066Z,2.75
2023-01-18T15:38:39.049Z,2.65
2023-01-18T15:41:43.438Z,2.70
2023-01-18T15:44:52.234Z,2.63
2023-01-18T15:47:56.283Z,2.65
2023-01-18T15:51:06.553Z,2.78
2023-01-18T15:54:10.129Z,3.03
2023-01-18T15:57:17.613Z,2.22
2023-01-18T16:03:53.259Z,2.67
2023-01-18T16:06:55.256Z,2.85
2023-01-18T16:10:09.515Z,2.67
2023-01-18T16:13:26.615Z,2.70
2023-01-18T16:16:29.775Z,2.83
2023-01-18T16:19:36.151Z,2.95
2023-01-18T16:22:38.166Z,3.35
2023-01-18T16:25:40.121Z,3.53
2023-01-18T16:28:47.046Z,3.40
2023-01-18T16:32:15.151Z,3.30
2023-01-18T16:35:24.234Z,3.17
2023-01-18T16:41:37.751Z,3.88
2023-01-18T16:44:46.539Z,4.40
2023-01-18T16:47:50.924Z,4.05
2023-01-18T16:50:56.958Z,4.15
2023-01-18T16:54:02.116Z,3.97
2023-01-18T16:57:14.983Z,4.78
2023-01-18T17:00:21.528Z,4.60
2023-01-18T17:03:29.499Z,4.65
2023-01-18T17:06:31.419Z,4.90
2023-01-18T17:09:43.758Z,4.45
2023-01-18T17:12:49.420Z,4.15
2023-01-18T17:15:53.357Z,4.85
2023-01-18T17:18:55.370Z,5.00
2023-01-18T17:21:59.668Z,5.38
2023-01-18T17:25:01.747Z,4.93
2023-01-18T17:28:04.346Z,5.55
2023-01-18T17:31:06.535Z,5.50
2023-01-18T17:34:11.449Z,6.40
2023-01-18T17:37:13.466Z,6.43
2023-01-18T17:40:23.568Z,6.60
2023-01-18T17:43:34.047Z,5.80
2023-01-18T17:46:36.763Z,5.60
2023-01-18T17:49:38.805Z,6.28
2023-01-18T17:52:41.125Z,6.53
2023-01-18T17:55:43.344Z,6.15
2023-01-18T17:58:47.109Z,5.82
2023-01-18T18:01:49.394Z,4.88
2023-01-18T18:04:52.610Z,5.68
2023-01-18T18:07:54.668Z,5.97
2023-01-18T18:10:57.653Z,6.55
2023-01-18T18:14:00.794Z,10.05
2023-01-18T18:17:05.649Z,6.53
2023-01-18T18:20:09.670Z,6.80
2023-01-18T18:26:18.762Z,5.90
2023-01-18T18:29:20.950Z,6.68
2023-01-18T18:32:23.105Z,7.03
2023-01-18T18:35:26.563Z,8.25
2023-01-18T18:38:28.832Z,7.38
2023-01-18T18:41:31.276Z,7.72
2023-01-18T18:44:36.429Z,7.93
2023-01-18T18:47:39.047Z,9.18
2023-01-18T18:50:41.311Z,8.90
2023-01-18T18:53:43.698Z,7.45
2023-01-18T18:56:45.983Z,7.40
2023-01-18T18:59:48.917Z,7.85
2023-01-18T19:02:51.365Z,6.65
2023-01-18T19:05:54.251Z,6.60
2023-01-18T19:08:56.483Z,6.95
2023-01-18T19:11:58.646Z,7.70
2023-01-18T19:18:03.818Z,7.07
2023-01-18T19:21:06.242Z,7.10
2023-01-18T19:24:08.703Z,6.82
2023-01-18T19:27:10.850Z,7.07
2023-01-18T19:30:13.775Z,6.93
2023-01-18T19:33:15.887Z,7.88
2023-01-18T19:36:18.284Z,7.72
2023-01-18T19:39:22.629Z,8.20
2023-01-18T19:42:31.316Z,9.43
2023-01-18T19:45:33.613Z,7.82
2023-01-18T19:48:36.304Z,8.13
2023-01-18T19:51:38.382Z,7.05
2023-01-18T19:54:40.635Z,7.05
2023-01-18T20:00:49.921Z,7.00
2023-01-18T20:03:52.032Z,8.43
2023-01-18T20:06:53.963Z,7.72
2023-01-18T20:09:55.970Z,8.18
2023-01-18T20:12:59.056Z,7.40
2023-01-18T20:16:01.292Z,7.38
2023-01-18T20:19:03.775Z,7.93
2023-01-18T20:22:05.854Z,7.28
2023-01-18T20:25:08.234Z,7.03
2023-01-18T20:28:10.319Z,7.60
2023-01-18T20:31:12.599Z,7.57
2023-01-18T20:37:21.927Z,7.40
2023-01-18T20:40:23.907Z,8.30
2023-01-18T20:43:25.963Z,7.32
2023-01-18T20:46:28.047Z,7.80
2023-01-18T20:49:37.741Z,7.20
2023-01-18T20:52:40.553Z,7.28
2023-01-18T20:55:42.548Z,7.22
2023-01-18T20:58:44.638Z,7.53
2023-01-18T21:01:46.735Z,6.90
2023-01-18T21:04:49.015Z,6.53
2023-01-18T21:07:51.054Z,7.20
2023-01-18T21:10:53.033Z,6.90
2023-01-18T21:13:56.398Z,8.45
2023-01-18T21:16:58.829Z,7.85
2023-01-18T21:20:00.884Z,8.35
2023-01-18T21:23:02.935Z,8.32
2023-01-18T21:26:07.613Z,8.73
2023-01-18T21:29:09.886Z,9.27
2023-01-18T21:32:12.173Z,9.20
2023-01-18T21:35:15.313Z,8.27
2023-01-18T21:38:17.798Z,9.27
2023-01-18T21:41:19.961Z,8.52
2023-01-18T21:44:22.034Z,8.00
2023-01-18T21:47:25.377Z,8.90
2023-01-18T21:50:27.451Z,8.50
2023-01-18T21:53:29.581Z,8.23
2023-01-18T21:56:31.745Z,8.55
2023-01-18T21:59:35.092Z,8.18
2023-01-18T22:05:41.086Z,8.93
2023-01-18T22:08:45.740Z,8.27
2023-01-18T22:11:47.863Z,8.52
2023-01-18T22:14:50.280Z,8.13
2023-01-18T22:17:52.748Z,8.20
2023-01-18T22:20:55.914Z,9.32
2023-01-18T22:23:58.070Z,8.23
2023-01-18T22:27:00.149Z,7.65
2023-01-18T22:30:02.457Z,7.70
2023-01-18T22:33:04.673Z,7.65
2023-01-18T22:36:07.139Z,7.53
2023-01-18T22:39:10.976Z,8.57
2023-01-18T22:42:13.999Z,7.95
2023-01-18T22:45:16.264Z,8.48
2023-01-18T22:48:18.406Z,8.63
2023-01-18T22:51:23.247Z,8.02
2023-01-18T22:54:25.386Z,8.68
2023-01-18T22:57:27.725Z,8.60
2023-01-18T23:00:29.844Z,8.13
2023-01-18T23:03:32.023Z,8.10
2023-01-18T23:06:34.133Z,7.43
2023-01-18T23:09:36.282Z,7.93
2023-01-18T23:12:38.400Z,7.93
2023-01-18T23:15:44.580Z,7.70
2023-01-18T23:18:46.694Z,7.43
2023-01-18T23:21:51.760Z,7.60
2023-01-18T23:24:53.966Z,7.30
2023-01-18T23:27:56.139Z,7.13
2023-01-18T23:30:58.231Z,7.45
2023-01-18T23:34:00.564Z,7.80
2023-01-18T23:37:02.680Z,6.97
2023-01-18T23:40:05.441Z,7.45
2023-01-18T23:43:07.508Z,7.80
2023-01-18T23:46:09.728Z,7.95
2023-01-18T23:49:11.873Z,8.45
2023-01-18T23:52:14.149Z,8.32
2023-01-18T23:55:16.364Z,7.95
2023-01-18T23:58:18.765Z,7.50
